createdAt,value
2017-11-10T00:03:40.599Z,80.10
2017-11-10T00:08:45.013Z,80.30
2017-11-10T00:13:47.929Z,80.30
2017-11-10T00:18:50.888Z,80.30
2017-11-10T00:23:57.031Z,80.30
2017-11-10T00:28:59.958Z,80.30
2017-11-10T00:39:10.215Z,80.10
2017-11-10T00:49:23.077Z,80.30
2017-11-10T00:54:26.417Z,80.30
2017-11-10T00:59:31.459Z,80.40
2017-11-10T01:04:35.756Z,80.40
2017-11-10T01:09:38.785Z,80.40
2017-11-10T01:14:42.041Z,80.70
2017-11-10T01:19:46.302Z,81.00
2017-11-10T01:29:56.138Z,80.10
2017-11-10T01:34:59.605Z,80.10
2017-11-10T01:40:03.996Z,79.90
2017-11-10T01:45:08.301Z,79.80
2017-11-10T01:50:12.526Z,79.70
2017-11-10T01:55:15.349Z,79.90
2017-11-10T02:00:19.896Z,79.90
2017-11-10T02:05:23.244Z,79.90
2017-11-10T02:10:29.293Z,80.00
2017-11-10T02:15:32.703Z,80.10
2017-11-10T02:20:37.810Z,80.10
2017-11-10T02:25:41.261Z,80.00
2017-11-10T02:30:44.653Z,80.00
2017-11-10T02:35:47.590Z,79.80
2017-11-10T02:40:50.388Z,79.70
2017-11-10T02:45:54.758Z,79.90
2017-11-10T02:50:59.106Z,79.80
2017-11-10T02:56:04.234Z,80.00
2017-11-10T03:01:08.516Z,80.00
2017-11-10T03:06:11.333Z,79.80
2017-11-10T03:11:14.380Z,79.70
2017-11-10T03:21:24.714Z,79.90
2017-11-10T03:26:28.212Z,80.00
2017-11-10T03:31:32.355Z,79.70
2017-11-10T03:36:39.481Z,79.70
2017-11-10T03:41:45.589Z,79.90
2017-11-10T03:51:56.398Z,79.70
2017-11-10T03:56:59.796Z,79.60
2017-11-10T04:02:03.255Z,79.90
2017-11-10T04:07:07.614Z,79.60
2017-11-10T04:12:10.607Z,79.80
2017-11-10T04:17:16.634Z,79.70
2017-11-10T04:22:22.621Z,79.80
2017-11-10T04:27:25.977Z,79.80
2017-11-10T04:32:29.025Z,79.60
2017-11-10T04:37:34.135Z,79.90
2017-11-10T04:42:37.624Z,79.80
2017-11-10T04:47:41.965Z,79.80
2017-11-10T04:52:46.509Z,79.70
2017-11-10T04:57:50.930Z,79.80
2017-11-10T05:08:01.291Z,79.70
2017-11-10T05:13:04.834Z,79.70
2017-11-10T05:18:07.443Z,79.70
2017-11-10T05:23:10.031Z,79.70
2017-11-10T05:28:12.603Z,79.70
2017-11-10T05:33:15.160Z,79.40
2017-11-10T05:38:17.766Z,79.50
2017-11-10T05:43:20.347Z,79.60
2017-11-10T05:48:22.940Z,79.60
2017-11-10T05:53:25.514Z,79.60
2017-11-10T05:58:28.088Z,79.50
2017-11-10T06:03:31.478Z,79.30
2017-11-10T06:08:34.030Z,79.30
2017-11-10T06:13:36.596Z,79.50
2017-11-10T06:18:39.148Z,79.40
2017-11-10T06:23:41.717Z,79.50
2017-11-10T06:28:45.021Z,79.30
2017-11-10T06:39:16.552Z,79.30
2017-11-10T06:44:19.132Z,79.20
2017-11-10T06:49:22.444Z,79.30
2017-11-10T06:54:25.772Z,79.10
2017-11-10T06:59:28.387Z,79.10
2017-11-10T07:04:30.947Z,79.10
2017-11-10T07:09:33.498Z,78.90
2017-11-10T07:14:36.071Z,78.90
2017-11-10T07:19:39.390Z,78.90
2017-11-10T07:24:41.952Z,78.80
2017-11-10T07:29:44.526Z,78.80
2017-11-10T07:34:47.089Z,78.80
2017-11-10T07:39:49.647Z,78.90
2017-11-10T07:44:52.198Z,78.70
2017-11-10T07:49:54.756Z,78.60
2017-11-10T07:54:57.323Z,78.60
2017-11-10T07:59:59.890Z,78.40
2017-11-10T08:05:02.433Z,78.40
2017-11-10T08:10:05.007Z,78.20
2017-11-10T08:15:07.571Z,77.60
2017-11-10T08:20:10.132Z,77.70
2017-11-10T08:25:12.689Z,77.50
2017-11-10T08:30:15.253Z,77.60
2017-11-10T08:35:17.821Z,77.50
2017-11-10T08:40:20.385Z,77.20
2017-11-10T08:45:23.721Z,77.60
2017-11-10T08:50:26.352Z,77.60
2017-11-10T08:55:28.956Z,77.80
2017-11-10T09:00:31.521Z,77.50
2017-11-10T09:05:34.103Z,77.70
2017-11-10T09:10:37.439Z,77.50
2017-11-10T09:15:40.012Z,77.50
2017-11-10T09:20:43.339Z,77.10
2017-11-10T09:25:46.681Z,77.30
2017-11-10T09:31:01.067Z,77.30
2017-11-10T09:41:40.601Z,77.10
2017-11-10T09:46:49.508Z,77.00
2017-11-10T09:52:08.901Z,77.00
2017-11-10T09:57:16.109Z,76.60
2017-11-10T10:02:37.517Z,76.30
2017-11-10T10:07:45.564Z,76.90
2017-11-10T10:12:53.712Z,76.70
2017-11-10T10:17:58.083Z,76.00
2017-11-10T10:23:00.651Z,76.90
2017-11-10T10:28:04.647Z,76.10
2017-11-10T10:33:07.220Z,76.10
2017-11-10T10:38:09.774Z,75.50
2017-11-10T10:43:12.351Z,75.50
2017-11-10T10:48:14.906Z,75.10
2017-11-10T10:53:17.471Z,75.50
2017-11-10T10:58:20.028Z,75.60
2017-11-10T11:03:22.684Z,75.60
2017-11-10T11:08:26.017Z,74.90
2017-11-10T11:13:28.564Z,74.90
2017-11-10T11:18:31.163Z,74.50
2017-11-10T11:23:33.736Z,74.30
2017-11-10T11:28:36.324Z,74.70
2017-11-10T11:33:38.908Z,74.50
2017-11-10T11:38:42.258Z,74.20
2017-11-10T11:43:44.889Z,74.20
2017-11-10T11:48:47.456Z,74.50
2017-11-10T11:53:50.042Z,74.10
2017-11-10T11:58:52.604Z,73.40
2017-11-10T12:03:55.194Z,72.80
2017-11-10T12:08:57.758Z,73.10
2017-11-10T12:14:00.325Z,72.70
2017-11-10T12:19:03.691Z,72.70
2017-11-10T12:24:06.266Z,72.60
2017-11-10T12:29:08.831Z,72.90
2017-11-10T12:34:11.394Z,72.30
2017-11-10T12:39:13.980Z,73.60
2017-11-10T12:44:16.540Z,73.10
2017-11-10T12:49:19.106Z,72.80
2017-11-10T12:54:22.483Z,73.00
2017-11-10T12:59:25.365Z,73.00
2017-11-10T13:04:27.912Z,72.90
2017-11-10T13:09:30.703Z,73.60
2017-11-10T13:14:33.266Z,73.30
2017-11-10T13:19:35.842Z,73.30
2017-11-10T13:24:38.413Z,73.80
2017-11-10T13:29:40.965Z,73.20
2017-11-10T13:34:44.298Z,73.80
2017-11-10T13:39:46.861Z,73.70
2017-11-10T13:44:49.437Z,74.10
2017-11-10T13:49:52.009Z,74.40
2017-11-10T13:54:54.581Z,74.70
2017-11-10T13:59:57.157Z,74.70
2017-11-10T14:04:59.723Z,74.70
2017-11-10T14:10:02.292Z,74.80
2017-11-10T14:15:05.626Z,74.80
2017-11-10T14:20:08.184Z,74.70
2017-11-10T14:25:10.769Z,74.90
2017-11-10T14:30:13.315Z,75.10
2017-11-10T14:35:15.880Z,74.70
2017-11-10T14:40:18.452Z,74.60
2017-11-10T14:45:21.016Z,74.40
2017-11-10T14:50:24.347Z,74.90
2017-11-10T14:55:26.920Z,74.80
2017-11-10T15:00:30.249Z,75.10
2017-11-10T15:05:32.858Z,75.10
2017-11-10T15:10:35.567Z,75.00
2017-11-10T15:15:38.163Z,75.30
2017-11-10T15:20:40.724Z,75.40
2017-11-10T15:25:43.286Z,75.30
2017-11-10T15:30:45.847Z,75.40
2017-11-10T15:35:48.414Z,75.50
2017-11-10T15:40:51.223Z,75.50
2017-11-10T15:45:54.570Z,75.70
2017-11-10T15:50:57.899Z,75.80
2017-11-10T15:56:00.475Z,75.80
2017-11-10T16:01:03.026Z,75.90
2017-11-10T16:06:05.593Z,75.70
2017-11-10T16:11:08.171Z,75.90
2017-11-10T16:16:10.725Z,75.90
2017-11-10T16:26:17.611Z,75.80
2017-11-10T16:31:20.188Z,76.00
2017-11-10T16:36:22.772Z,76.00
2017-11-10T16:41:25.340Z,75.90
2017-11-10T16:46:27.936Z,76.00
2017-11-10T16:51:30.511Z,76.30
2017-11-10T16:56:33.071Z,76.30
2017-11-10T17:01:35.637Z,76.50
2017-11-10T17:06:38.216Z,76.50
2017-11-10T17:11:41.547Z,76.60
2017-11-10T17:16:44.106Z,76.60
2017-11-10T17:21:46.674Z,76.70
2017-11-10T17:26:49.251Z,76.70
2017-11-10T17:31:51.813Z,76.70
2017-11-10T17:36:54.378Z,76.90
2017-11-10T17:41:56.945Z,76.80
2017-11-10T17:47:01.064Z,77.00
2017-11-10T17:52:03.632Z,76.90
2017-11-10T17:57:06.202Z,76.90
2017-11-10T18:02:08.834Z,77.10
2017-11-10T18:07:11.423Z,77.30
2017-11-10T18:12:14.016Z,77.60
2017-11-10T18:17:16.609Z,77.30
2017-11-10T18:22:19.163Z,77.90
2017-11-10T18:27:21.700Z,78.00
2017-11-10T18:32:24.292Z,78.10
2017-11-10T18:37:27.293Z,78.20
2017-11-10T18:42:29.862Z,78.10
2017-11-10T18:47:32.526Z,78.30
2017-11-10T18:52:35.163Z,78.20
2017-11-10T18:57:37.781Z,78.20
2017-11-10T19:02:40.352Z,78.80
2017-11-10T19:07:43.800Z,78.40
2017-11-10T19:12:46.369Z,78.40
2017-11-10T19:22:55.985Z,78.30
2017-11-10T19:27:58.573Z,78.30
2017-11-10T19:33:01.134Z,78.60
2017-11-10T19:38:03.738Z,78.60
2017-11-10T19:43:06.337Z,78.60
2017-11-10T19:48:08.886Z,78.60
2017-11-10T19:53:11.497Z,78.60
2017-11-10T19:58:14.140Z,78.50
2017-11-10T20:03:16.728Z,78.10
2017-11-10T20:08:19.303Z,78.80
2017-11-10T20:13:21.899Z,78.70
2017-11-10T20:18:24.565Z,78.90
2017-11-10T20:23:27.630Z,78.90
2017-11-10T20:28:30.989Z,79.00
2017-11-10T20:33:33.620Z,78.90
2017-11-10T20:38:36.178Z,79.10
2017-11-10T20:43:38.735Z,79.10
2017-11-10T20:48:41.300Z,78.90
2017-11-10T20:53:44.008Z,79.20
2017-11-10T20:58:46.591Z,79.20
2017-11-10T21:03:49.178Z,79.30
2017-11-10T21:08:51.784Z,79.40
2017-11-10T21:13:54.405Z,79.30
2017-11-10T21:18:57.003Z,79.40
2017-11-10T21:23:59.559Z,79.80
2017-11-10T21:29:02.117Z,79.60
2017-11-10T21:34:04.687Z,79.80
2017-11-10T21:39:07.253Z,79.70
2017-11-10T21:44:09.818Z,79.50
2017-11-10T21:49:12.390Z,80.00
2017-11-10T21:54:14.932Z,80.00
2017-11-10T21:59:17.517Z,80.00
2017-11-10T22:04:20.072Z,79.90
2017-11-10T22:09:23.357Z,80.10
2017-11-10T22:14:25.933Z,80.20
2017-11-10T22:19:28.491Z,80.40
2017-11-10T22:24:31.021Z,80.40
2017-11-10T22:29:34.007Z,80.20
2017-11-10T22:34:36.566Z,80.40
2017-11-10T22:39:39.148Z,80.30
2017-11-10T22:44:41.745Z,80.40
2017-11-10T22:49:44.303Z,80.40
2017-11-10T22:54:46.889Z,80.50
2017-11-10T22:59:49.682Z,80.30
2017-11-10T23:04:52.302Z,80.20
2017-11-10T23:09:54.859Z,80.20
2017-11-10T23:14:57.417Z,80.40
2017-11-10T23:20:00.002Z,80.20
2017-11-10T23:25:02.579Z,80.20
2017-11-10T23:30:05.142Z,79.80
2017-11-10T23:35:07.700Z,79.70
2017-11-10T23:40:10.237Z,79.40
2017-11-10T23:45:12.804Z,79.20
2017-11-10T23:50:15.409Z,79.20
2017-11-10T23:55:17.986Z,79.10
